Delta Ios — SVAK9 — position and weather

sailwx.info

Track history (hours):
 
Tides and Currents Weather Stations Pressure Air Temp Water Temp Dewpoint Dewpoint Depression Visibility Wind Speed Wind Dir Waves Ship Positions

Delta Ios

Last reported at 2017-Aug-21 23:45 UTC. Time now 2017-Aug-23 00:29 UTC.
Position N 48°29' W 006°08'.

Length 276 m; draft 15.8 m.

Type: Tanker. MMSI: 240821000.

Date/timePositionNaut miles runAvg speedWind from/ knotsBaromVisibWave heightAir tempDewpointWater temp
2017-Aug-21 23:45N 48°29' W 006°08'311.5
2017-Aug-21 23:30N 48°31' W 006°06'611.9
2017-Aug-21 22:59N 48°36' W 006°02'1212.6
2017-Aug-21 22:05N 48°46' W 005°52'412.9
2017-Aug-21 21:45N 48°49' W 005°48'312.8
2017-Aug-21 21:30N 48°52' W 005°46'712.8
2017-Aug-21 20:58N 48°57' W 005°38'612.4
2017-Aug-21 20:30N 49°00' W 005°31'612.2
2017-Aug-21 20:00N 49°03' W 005°23'611.8
2017-Aug-21 19:30N 49°07' W 005°16'611.5
2017-Aug-21 19:00N 49°10' W 005°08'510.8
2017-Aug-21 18:30N 49°12' W 005°01'510.2
2017-Aug-21 18:00N 49°15' W 004°54'5 9.9
2017-Aug-21 17:30N 49°17' W 004°48'5 9.7
2017-Aug-21 17:00N 49°20' W 004°41'5 9.6
2017-Aug-21 16:30N 49°22' W 004°35'5 9.5
2017-Aug-21 16:00N 49°25' W 004°29'5 9.8
2017-Aug-21 15:30N 49°27' W 004°22'510.1
2017-Aug-21 15:00N 49°29' W 004°15'510.5
2017-Aug-21 14:30N 49°32' W 004°08'611.2
2017-Aug-21 14:00N 49°35' W 004°01'611.6
2017-Aug-21 13:30N 49°38' W 003°53'612.2
2017-Aug-21 13:00N 49°41' W 003°45'612.5
2017-Aug-21 12:30N 49°44' W 003°37'612.9
2017-Aug-21 12:00N 49°47' W 003°28'612.8
2017-Aug-21 11:30N 49°50' W 003°19'612.6
2017-Aug-21 11:00N 49°53' W 003°10'612.1
2017-Aug-21 10:30N 49°55' W 003°02'611.4
2017-Aug-21 10:00N 49°58' W 002°54'510.8
2017-Aug-21 09:30N 50°00' W 002°46'5 9.9
2017-Aug-21 09:00N 50°02' W 002°39'5 9.3
2017-Aug-21 08:30N 50°03' W 002°32'4 8.6
2017-Aug-21 08:00N 50°05' W 002°26'4 7.9
2017-Aug-21 07:30N 50°06' W 002°20'4 7.6
2017-Aug-21 07:00N 50°07' W 002°14'4 7.5
2017-Aug-21 06:30N 50°08' W 002°09'4 7.8
2017-Aug-21 06:00N 50°09' W 002°03'4 8.4
2017-Aug-21 05:30N 50°10' W 001°56'5 9.1
2017-Aug-21 05:00N 50°12' W 001°50'510.0
2017-Aug-21 04:30N 50°13' W 001°42'611.1
2017-Aug-21 04:00N 50°14' W 001°34'612.0
2017-Aug-21 03:30N 50°16' W 001°25'612.8
2017-Aug-21 03:00N 50°17' W 001°15'713.6
2017-Aug-21 02:30N 50°19' W 001°05'714.0
2017-Aug-21 02:00N 50°21' W 000°54'2013.5
2017-Aug-21 00:31N 50°27' W 000°24'011.5
2017-Aug-21 00:30N 50°27' W 000°24'612.5
2017-Aug-21 00:00N 50°29' W 000°14'612.1
2017-Aug-20 23:30N 50°30' W 000°05'611.6
2017-Aug-20 23:00N 50°32' E 000°04'611.2
2017-Aug-20 22:30N 50°34' E 000°12'510.7
2017-Aug-20 22:00N 50°35' E 000°20'510.1
2017-Aug-20 21:30N 50°37' E 000°28'5 9.8
2017-Aug-20 21:00N 50°38' E 000°35'5 9.6
2017-Aug-20 20:30N 50°41' E 000°41'5 9.6
2017-Aug-20 20:00N 50°44' E 000°48'510.0
2017-Aug-20 19:30N 50°46' E 000°54'510.6
2017-Aug-20 19:00N 50°49' E 001°01'611.4
2017-Aug-20 18:30N 50°53' E 001°08'612.2
2017-Aug-20 18:00N 50°57' E 001°16'613.0
2017-Aug-20 17:30N 51°02' E 001°23'612.9
2017-Aug-20 17:00N 51°06' E 001°31'612.4
2017-Aug-20 16:30N 51°09' E 001°39'611.5
2017-Aug-20 16:00N 51°13' E 001°45'511.0
2017-Aug-20 15:30N 51°18' E 001°49'510.3
2017-Aug-20 15:00N 51°23' E 001°52'5 9.7
2017-Aug-20 14:30N 51°27' E 001°56'5 9.6
2017-Aug-20 14:00N 51°31' E 002°01'5 9.3
2017-Aug-20 13:30N 51°34' E 002°07'5 9.3
2017-Aug-20 13:00N 51°37' E 002°12'5 9.2
2017-Aug-20 12:30N 51°40' E 002°18'  
2017-Aug-18 08:05N 60°41' E 004°20'1 9.0
2017-Aug-18 08:00N 60°42' E 004°21'4 7.8
2017-Aug-18 07:30N 60°45' E 004°24'2 4.3
2017-Aug-18 06:59N 60°46' E 004°28'3 5.1
2017-Aug-18 06:29N 60°49' E 004°30'4 7.5
2017-Aug-18 06:00N 60°52' E 004°35'611.6
2017-Aug-18 05:30N 60°51' E 004°47'510.4
2017-Aug-18 05:00N 60°51' E 004°57'3 5.5
2017-Aug-18 04:30N 60°49' E 005°02'0 0.0
2017-Aug-18 04:00N 60°49' E 005°02'0 0.0
2017-Aug-18 03:30N 60°49' E 005°02'0 0.0
2017-Aug-18 03:00N 60°49' E 005°02'0 0.0
2017-Aug-18 02:30N 60°49' E 005°02'0 0.0
2017-Aug-18 02:00N 60°49' E 005°02'0 0.0
2017-Aug-18 01:30N 60°49' E 005°02'0 0.0
2017-Aug-18 01:00N 60°49' E 005°02'0 0.0
2017-Aug-18 00:30N 60°49' E 005°02'0 0.0
2017-Aug-18 00:00N 60°49' E 005°02'0 0.0
2017-Aug-17 23:30N 60°49' E 005°02'0 0.0
2017-Aug-17 23:00N 60°49' E 005°02'0 0.0
2017-Aug-17 22:30N 60°49' E 005°02'0 0.0
2017-Aug-17 22:00N 60°49' E 005°02'0 0.0
2017-Aug-17 21:30N 60°49' E 005°02'0 0.0
2017-Aug-17 21:00N 60°49' E 005°02'0 0.0
2017-Aug-17 20:30N 60°49' E 005°02'0 0.0
2017-Aug-17 20:00N 60°49' E 005°02'0 0.0
2017-Aug-17 18:39N 60°49' E 005°02'0 0.0
2017-Aug-17 18:30N 60°49' E 005°02'0 0.0
2017-Aug-17 18:00N 60°49' E 005°02'0 0.0
2017-Aug-17 17:30N 60°49' E 005°02'0 0.0
2017-Aug-17 17:00N 60°49' E 005°02'0 0.0
2017-Aug-17 16:30N 60°49' E 005°02'0 0.0
2017-Aug-17 16:00N 60°49' E 005°02'0 0.0
2017-Aug-17 15:30N 60°49' E 005°02'0 0.0
2017-Aug-17 15:00N 60°49' E 005°02'0 0.0
2017-Aug-17 14:30N 60°49' E 005°02'0 0.0
2017-Aug-17 13:57N 60°49' E 005°02'0 0.0
2017-Aug-17 13:30N 60°49' E 005°02'0 0.0
2017-Aug-17 13:00N 60°49' E 005°02'0 0.0
2017-Aug-17 12:30N 60°49' E 005°02'0 0.0
2017-Aug-17 12:00N 60°49' E 005°02'0 0.0
2017-Aug-17 11:30N 60°49' E 005°02'0 0.0
2017-Aug-17 11:00N 60°49' E 005°02'0 0.0
2017-Aug-17 10:30N 60°49' E 005°02'0 0.0
2017-Aug-17 10:00N 60°49' E 005°02'0 0.0
2017-Aug-17 09:30N 60°49' E 005°02'0 0.0
2017-Aug-17 09:00N 60°49' E 005°02'0 0.0
2017-Aug-17 08:30N 60°49' E 005°02'0 0.0
2017-Aug-17 08:00N 60°49' E 005°02'0 0.0
2017-Aug-17 07:30N 60°49' E 005°02'0 0.0
2017-Aug-17 07:00N 60°49' E 005°02'0 0.0
2017-Aug-17 06:30N 60°49' E 005°02'0 0.0
2017-Aug-17 06:00N 60°49' E 005°02'0 0.0
2017-Aug-17 05:30N 60°49' E 005°02'0 0.0
2017-Aug-17 05:00N 60°49' E 005°02'0 0.0
2017-Aug-17 04:30N 60°49' E 005°02'0 0.0
2017-Aug-17 04:00N 60°49' E 005°02'0 0.0
2017-Aug-17 03:30N 60°49' E 005°02'0 0.0
2017-Aug-17 03:00N 60°49' E 005°02'0 0.0
2017-Aug-17 02:30N 60°49' E 005°02'0 0.0
2017-Aug-17 02:00N 60°49' E 005°02'0 0.0
2017-Aug-17 01:30N 60°49' E 005°02'0 0.0
2017-Aug-17 01:00N 60°49' E 005°02'0 0.0
2017-Aug-17 00:30N 60°49' E 005°02'0 0.0
2017-Aug-17 00:00N 60°49' E 005°02'0 0.0
2017-Aug-16 23:30N 60°49' E 005°02'0 0.0
2017-Aug-16 23:00N 60°49' E 005°02'0 0.0
2017-Aug-16 22:30N 60°49' E 005°02'0 0.4
2017-Aug-16 22:00N 60°49' E 005°02'1 2.2
2017-Aug-16 21:30N 60°50' E 005°01'5 9.8
2017-Aug-16 21:00N 60°51' E 004°51'510.7
2017-Aug-16 20:30N 60°51' E 004°40'611.6
2017-Aug-16 20:00N 60°52' E 004°28'2 3.1
2017-Aug-16 19:30N 60°51' E 004°26'2 3.0
2017-Aug-16 19:00N 60°50' E 004°26'2 3.0
2017-Aug-16 18:30N 60°48' E 004°26'2 4.2
2017-Aug-16 18:00N 60°46' E 004°25'2 4.3
2017-Aug-16 17:29N 60°44' E 004°25'3 7.0
2017-Aug-16 17:00N 60°41' E 004°24'4 7.7
2017-Aug-16 16:30N 60°37' E 004°24'4 8.1
2017-Aug-16 16:00N 60°33' E 004°23'24 0.6
2017-Aug-14 23:09N 60°56' E 004°15'1 7.0
2017-Aug-14 22:59N 60°55' E 004°16'3 7.1
2017-Aug-14 22:30N 60°52' E 004°21'3 5.1
2017-Aug-14 22:00N 60°51' E 004°25'4 7.8
2017-Aug-14 21:29N 60°55' E 004°22'2 4.1
2017-Aug-14 21:00N 60°53' E 004°24'3 6.8
2017-Aug-14 20:30N 60°49' E 004°22'3 6.2
2017-Aug-14 20:00N 60°46' E 004°20'  
Track history (hours):
 
Tides and Currents Weather Stations Pressure Air Temp Water Temp Dewpoint Dewpoint Depression Visibility Wind Speed Wind Dir Waves Ship Positions

Delta Ios

Last reported at 2017-Aug-21 23:45 UTC. Time now 2017-Aug-23 00:29 UTC.
Position N 48°29' W 006°08'.

Length 276 m; draft 15.8 m.

Type: Tanker. MMSI: 240821000.

Date/timePositionNaut miles runAvg speedWind from/ knotsBaromVisibWave heightAir tempDewpointWater temp
2017-Aug-21 23:45N 48°29' W 006°08'311.5
2017-Aug-21 23:30N 48°31' W 006°06'611.9
2017-Aug-21 22:59N 48°36' W 006°02'1212.6
2017-Aug-21 22:05N 48°46' W 005°52'412.9
2017-Aug-21 21:45N 48°49' W 005°48'312.8
2017-Aug-21 21:30N 48°52' W 005°46'712.8
2017-Aug-21 20:58N 48°57' W 005°38'612.4
2017-Aug-21 20:30N 49°00' W 005°31'612.2
2017-Aug-21 20:00N 49°03' W 005°23'611.8
2017-Aug-21 19:30N 49°07' W 005°16'611.5
2017-Aug-21 19:00N 49°10' W 005°08'510.8
2017-Aug-21 18:30N 49°12' W 005°01'510.2
2017-Aug-21 18:00N 49°15' W 004°54'5 9.9
2017-Aug-21 17:30N 49°17' W 004°48'5 9.7
2017-Aug-21 17:00N 49°20' W 004°41'5 9.6
2017-Aug-21 16:30N 49°22' W 004°35'5 9.5
2017-Aug-21 16:00N 49°25' W 004°29'5 9.8
2017-Aug-21 15:30N 49°27' W 004°22'510.1
2017-Aug-21 15:00N 49°29' W 004°15'510.5
2017-Aug-21 14:30N 49°32' W 004°08'611.2
2017-Aug-21 14:00N 49°35' W 004°01'611.6
2017-Aug-21 13:30N 49°38' W 003°53'612.2
2017-Aug-21 13:00N 49°41' W 003°45'612.5
2017-Aug-21 12:30N 49°44' W 003°37'612.9
2017-Aug-21 12:00N 49°47' W 003°28'612.8
2017-Aug-21 11:30N 49°50' W 003°19'612.6
2017-Aug-21 11:00N 49°53' W 003°10'612.1
2017-Aug-21 10:30N 49°55' W 003°02'611.4
2017-Aug-21 10:00N 49°58' W 002°54'510.8
2017-Aug-21 09:30N 50°00' W 002°46'5 9.9
2017-Aug-21 09:00N 50°02' W 002°39'5 9.3
2017-Aug-21 08:30N 50°03' W 002°32'4 8.6
2017-Aug-21 08:00N 50°05' W 002°26'4 7.9
2017-Aug-21 07:30N 50°06' W 002°20'4 7.6
2017-Aug-21 07:00N 50°07' W 002°14'4 7.5
2017-Aug-21 06:30N 50°08' W 002°09'4 7.8
2017-Aug-21 06:00N 50°09' W 002°03'4 8.4
2017-Aug-21 05:30N 50°10' W 001°56'5 9.1
2017-Aug-21 05:00N 50°12' W 001°50'510.0
2017-Aug-21 04:30N 50°13' W 001°42'611.1
2017-Aug-21 04:00N 50°14' W 001°34'612.0
2017-Aug-21 03:30N 50°16' W 001°25'612.8
2017-Aug-21 03:00N 50°17' W 001°15'713.6
2017-Aug-21 02:30N 50°19' W 001°05'714.0
2017-Aug-21 02:00N 50°21' W 000°54'2013.5
2017-Aug-21 00:31N 50°27' W 000°24'011.5
2017-Aug-21 00:30N 50°27' W 000°24'612.5
2017-Aug-21 00:00N 50°29' W 000°14'612.1
2017-Aug-20 23:30N 50°30' W 000°05'611.6
2017-Aug-20 23:00N 50°32' E 000°04'611.2
2017-Aug-20 22:30N 50°34' E 000°12'510.7
2017-Aug-20 22:00N 50°35' E 000°20'510.1
2017-Aug-20 21:30N 50°37' E 000°28'5 9.8
2017-Aug-20 21:00N 50°38' E 000°35'5 9.6
2017-Aug-20 20:30N 50°41' E 000°41'5 9.6
2017-Aug-20 20:00N 50°44' E 000°48'510.0
2017-Aug-20 19:30N 50°46' E 000°54'510.6
2017-Aug-20 19:00N 50°49' E 001°01'611.4
2017-Aug-20 18:30N 50°53' E 001°08'612.2
2017-Aug-20 18:00N 50°57' E 001°16'613.0
2017-Aug-20 17:30N 51°02' E 001°23'612.9
2017-Aug-20 17:00N 51°06' E 001°31'612.4
2017-Aug-20 16:30N 51°09' E 001°39'611.5
2017-Aug-20 16:00N 51°13' E 001°45'511.0
2017-Aug-20 15:30N 51°18' E 001°49'510.3
2017-Aug-20 15:00N 51°23' E 001°52'5 9.7
2017-Aug-20 14:30N 51°27' E 001°56'5 9.6
2017-Aug-20 14:00N 51°31' E 002°01'5 9.3
2017-Aug-20 13:30N 51°34' E 002°07'5 9.3
2017-Aug-20 13:00N 51°37' E 002°12'5 9.2
2017-Aug-20 12:30N 51°40' E 002°18'  
2017-Aug-18 08:05N 60°41' E 004°20'1 9.0
2017-Aug-18 08:00N 60°42' E 004°21'4 7.8
2017-Aug-18 07:30N 60°45' E 004°24'2 4.3
2017-Aug-18 06:59N 60°46' E 004°28'3 5.1
2017-Aug-18 06:29N 60°49' E 004°30'4 7.5
2017-Aug-18 06:00N 60°52' E 004°35'611.6
2017-Aug-18 05:30N 60°51' E 004°47'510.4
2017-Aug-18 05:00N 60°51' E 004°57'3 5.5
2017-Aug-18 04:30N 60°49' E 005°02'0 0.0
2017-Aug-18 04:00N 60°49' E 005°02'0 0.0
2017-Aug-18 03:30N 60°49' E 005°02'0 0.0
2017-Aug-18 03:00N 60°49' E 005°02'0 0.0
2017-Aug-18 02:30N 60°49' E 005°02'0 0.0
2017-Aug-18 02:00N 60°49' E 005°02'0 0.0
2017-Aug-18 01:30N 60°49' E 005°02'0 0.0
2017-Aug-18 01:00N 60°49' E 005°02'0 0.0
2017-Aug-18 00:30N 60°49' E 005°02'0 0.0
2017-Aug-18 00:00N 60°49' E 005°02'0 0.0
2017-Aug-17 23:30N 60°49' E 005°02'0 0.0
2017-Aug-17 23:00N 60°49' E 005°02'0 0.0
2017-Aug-17 22:30N 60°49' E 005°02'0 0.0
2017-Aug-17 22:00N 60°49' E 005°02'0 0.0
2017-Aug-17 21:30N 60°49' E 005°02'0 0.0
2017-Aug-17 21:00N 60°49' E 005°02'0 0.0
2017-Aug-17 20:30N 60°49' E 005°02'0 0.0
2017-Aug-17 20:00N 60°49' E 005°02'0 0.0
2017-Aug-17 18:39N 60°49' E 005°02'0 0.0
2017-Aug-17 18:30N 60°49' E 005°02'0 0.0
2017-Aug-17 18:00N 60°49' E 005°02'0 0.0
2017-Aug-17 17:30N 60°49' E 005°02'0 0.0
2017-Aug-17 17:00N 60°49' E 005°02'0 0.0
2017-Aug-17 16:30N 60°49' E 005°02'0 0.0
2017-Aug-17 16:00N 60°49' E 005°02'0 0.0
2017-Aug-17 15:30N 60°49' E 005°02'0 0.0
2017-Aug-17 15:00N 60°49' E 005°02'0 0.0
2017-Aug-17 14:30N 60°49' E 005°02'0 0.0
2017-Aug-17 13:57N 60°49' E 005°02'0 0.0
2017-Aug-17 13:30N 60°49' E 005°02'0 0.0
2017-Aug-17 13:00N 60°49' E 005°02'0 0.0
2017-Aug-17 12:30N 60°49' E 005°02'0 0.0
2017-Aug-17 12:00N 60°49' E 005°02'0 0.0
2017-Aug-17 11:30N 60°49' E 005°02'0 0.0
2017-Aug-17 11:00N 60°49' E 005°02'0 0.0
2017-Aug-17 10:30N 60°49' E 005°02'0 0.0
2017-Aug-17 10:00N 60°49' E 005°02'0 0.0
2017-Aug-17 09:30N 60°49' E 005°02'0 0.0
2017-Aug-17 09:00N 60°49' E 005°02'0 0.0
2017-Aug-17 08:30N 60°49' E 005°02'0 0.0
2017-Aug-17 08:00N 60°49' E 005°02'0 0.0
2017-Aug-17 07:30N 60°49' E 005°02'0 0.0
2017-Aug-17 07:00N 60°49' E 005°02'0 0.0
2017-Aug-17 06:30N 60°49' E 005°02'0 0.0
2017-Aug-17 06:00N 60°49' E 005°02'0 0.0
2017-Aug-17 05:30N 60°49' E 005°02'0 0.0
2017-Aug-17 05:00N 60°49' E 005°02'0 0.0
2017-Aug-17 04:30N 60°49' E 005°02'0 0.0
2017-Aug-17 04:00N 60°49' E 005°02'0 0.0
2017-Aug-17 03:30N 60°49' E 005°02'0 0.0
2017-Aug-17 03:00N 60°49' E 005°02'0 0.0
2017-Aug-17 02:30N 60°49' E 005°02'0 0.0
2017-Aug-17 02:00N 60°49' E 005°02'0 0.0
2017-Aug-17 01:30N 60°49' E 005°02'0 0.0
2017-Aug-17 01:00N 60°49' E 005°02'0 0.0
2017-Aug-17 00:30N 60°49' E 005°02'0 0.0
2017-Aug-17 00:00N 60°49' E 005°02'0 0.0
2017-Aug-16 23:30N 60°49' E 005°02'0 0.0
2017-Aug-16 23:00N 60°49' E 005°02'0 0.0
2017-Aug-16 22:30N 60°49' E 005°02'0 0.4
2017-Aug-16 22:00N 60°49' E 005°02'1 2.2
2017-Aug-16 21:30N 60°50' E 005°01'5 9.8
2017-Aug-16 21:00N 60°51' E 004°51'510.7
2017-Aug-16 20:30N 60°51' E 004°40'611.6
2017-Aug-16 20:00N 60°52' E 004°28'2 3.1
2017-Aug-16 19:30N 60°51' E 004°26'2 3.0
2017-Aug-16 19:00N 60°50' E 004°26'2 3.0
2017-Aug-16 18:30N 60°48' E 004°26'2 4.2
2017-Aug-16 18:00N 60°46' E 004°25'2 4.3
2017-Aug-16 17:29N 60°44' E 004°25'3 7.0
2017-Aug-16 17:00N 60°41' E 004°24'4 7.7
2017-Aug-16 16:30N 60°37' E 004°24'4 8.1
2017-Aug-16 16:00N 60°33' E 004°23'24 0.6
2017-Aug-14 23:09N 60°56' E 004°15'1 7.0
2017-Aug-14 22:59N 60°55' E 004°16'3 7.1
2017-Aug-14 22:30N 60°52' E 004°21'3 5.1
2017-Aug-14 22:00N 60°51' E 004°25'4 7.8
2017-Aug-14 21:29N 60°55' E 004°22'2 4.1
2017-Aug-14 21:00N 60°53' E 004°24'3 6.8
2017-Aug-14 20:30N 60°49' E 004°22'3 6.2
2017-Aug-14 20:00N 60°46' E 004°20'  

Dump ship's entire track history